Time;durP1;ratioP1;P1;durP2;ratioP2;P2;SDS_P1;SDS_P2;PMS_P1;PMS_P2;Temp;Humidity;BMP_temperature;BMP_pressure;BME280_temperature;BME280_humidity;BME280_pressure;Samples;Min_cycle;Max_cycle;Signal;HPM_P1;HPM_P2
2024/01/12 00:00:30;;;;;;;30.13;4.43;;;4.60;99.90;;;;;;4838247;29;39265;-80
2024/01/12 00:02:56;;;;;;;23.77;5.00;;;4.60;99.90;;;;;;4859828;29;38190;-81
2024/01/12 00:05:23;;;;;;;23.80;4.00;;;4.60;99.90;;;;;;4874668;29;39669;-80
2024/01/12 00:07:49;;;;;;;23.77;4.53;;;4.60;99.90;;;;;;4842115;29;37902;-80
2024/01/12 00:10:26;;;;;;;20.30;3.57;;;4.60;99.90;;;;;;4860727;29;37990;-81
2024/01/12 00:12:54;;;;;;;20.80;4.00;;;4.50;99.90;;;;;;4859345;29;37616;-81
2024/01/12 00:15:20;;;;;;;21.30;5.23;;;4.60;99.90;;;;;;4855049;29;37482;-80
2024/01/12 00:17:49;;;;;;;27.93;5.27;;;4.60;99.90;;;;;;4860132;29;35645;-80
2024/01/12 00:20:19;;;;;;;26.30;5.13;;;4.60;99.90;;;;;;4866232;29;38068;-80
2024/01/12 00:22:45;;;;;;;25.73;4.30;;;4.60;99.90;;;;;;4860035;29;37672;-80
2024/01/12 00:25:19;;;;;;;23.83;4.43;;;4.60;99.90;;;;;;4868601;29;38141;-80
2024/01/12 00:27:45;;;;;;;30.83;5.07;;;4.60;99.90;;;;;;4858849;29;39805;-80
2024/01/12 00:30:14;;;;;;;21.53;5.00;;;4.50;99.90;;;;;;4858753;29;36705;-80
2024/01/12 00:32:42;;;;;;;31.17;6.07;;;4.50;99.90;;;;;;4856603;29;37689;-80
2024/01/12 00:35:15;;;;;;;20.80;4.20;;;4.60;99.90;;;;;;4862736;29;38014;-80
2024/01/12 00:37:42;;;;;;;33.07;6.30;;;4.60;99.90;;;;;;4858437;29;37935;-80
2024/01/12 00:40:09;;;;;;;25.87;4.40;;;4.60;99.90;;;;;;4861259;29;36010;-80
2024/01/12 00:42:39;;;;;;;26.23;4.70;;;4.50;99.90;;;;;;4855430;29;40535;-80
2024/01/12 00:45:08;;;;;;;29.73;5.70;;;4.50;99.90;;;;;;4852029;29;37282;-80
2024/01/12 00:47:34;;;;;;;29.40;5.50;;;4.60;99.90;;;;;;4849390;29;37123;-80
2024/01/12 00:50:04;;;;;;;24.03;4.60;;;4.50;99.90;;;;;;4875073;29;36521;-79
2024/01/12 00:52:33;;;;;;;23.83;5.10;;;4.50;99.90;;;;;;4856673;29;49131;-81
2024/01/12 00:55:00;;;;;;;23.60;5.03;;;4.50;99.90;;;;;;4876850;29;37798;-81
2024/01/12 00:57:29;;;;;;;24.03;4.90;;;4.50;99.90;;;;;;4855307;29;37376;-80
2024/01/12 00:59:55;;;;;;;20.90;4.93;;;4.50;99.90;;;;;;4859515;29;36650;-80
2024/01/12 01:02:24;;;;;;;32.03;5.50;;;4.50;99.90;;;;;;4846434;29;37220;-79
2024/01/12 01:04:51;;;;;;;26.20;5.13;;;4.50;99.90;;;;;;4862847;29;37210;-79
2024/01/12 01:07:17;;;;;;;19.20;3.97;;;4.50;99.90;;;;;;4856296;29;36840;-80
2024/01/12 01:09:59;;;;;;;29.23;5.97;;;4.50;99.90;;;;;;4869950;29;37459;-80
2024/01/12 01:12:25;;;;;;;20.83;4.70;;;4.50;99.90;;;;;;4878446;29;38335;-81
2024/01/12 01:14:51;;;;;;;20.43;4.30;;;4.50;99.90;;;;;;4860615;29;37429;-80
2024/01/12 01:17:20;;;;;;;22.57;4.50;;;4.50;99.90;;;;;;4864215;29;38697;-80
2024/01/12 01:19:46;;;;;;;23.93;4.77;;;4.60;99.90;;;;;;4851534;29;37298;-81
2024/01/12 01:22:13;;;;;;;26.27;5.07;;;4.60;99.90;;;;;;4854157;29;38034;-79
2024/01/12 01:24:42;;;;;;;24.33;5.23;;;4.60;99.90;;;;;;4867496;29;38084;-80
2024/01/12 01:27:08;;;;;;;23.23;5.10;;;4.50;99.90;;;;;;4863629;29;37069;-80
2024/01/12 01:29:38;;;;;;;19.93;4.37;;;4.50;99.90;;;;;;4885902;29;37796;-80
2024/01/12 01:32:07;;;;;;;24.03;4.77;;;4.50;99.90;;;;;;4864029;29;38459;-80
2024/01/12 01:34:33;;;;;;;23.70;5.13;;;4.50;99.90;;;;;;4854418;29;37747;-79
2024/01/12 01:37:04;;;;;;;27.17;6.10;;;4.50;99.90;;;;;;4865972;29;37409;-80
2024/01/12 01:39:30;;;;;;;25.20;5.57;;;4.50;99.90;;;;;;4857711;29;47629;-80
2024/01/12 01:41:56;;;;;;;17.73;4.37;;;4.50;99.90;;;;;;4862773;29;37984;-79
2024/01/12 01:44:25;;;;;;;25.23;5.03;;;4.50;99.90;;;;;;4876335;29;38867;-79
2024/01/12 01:46:55;;;;;;;22.23;4.50;;;4.50;99.90;;;;;;4857701;29;40255;-79
2024/01/12 01:49:21;;;;;;;24.37;4.23;;;4.50;99.90;;;;;;4855776;29;36568;-79
2024/01/12 01:51:50;;;;;;;19.53;3.60;;;4.60;99.90;;;;;;4864527;29;38178;-79
2024/01/12 01:54:19;;;;;;;21.87;4.67;;;4.60;99.90;;;;;;4864543;29;37250;-80
2024/01/12 01:56:46;;;;;;;18.23;3.97;;;4.50;99.90;;;;;;4876583;29;41125;-80
2024/01/12 01:59:13;;;;;;;24.50;4.30;;;4.50;99.90;;;;;;4881268;29;39604;-79
2024/01/12 02:01:56;;;;;;;22.50;3.77;;;4.50;99.90;;;;;;5322864;23;38365;-91
2024/01/12 02:04:22;;;;;;;19.50;4.30;;;4.50;99.90;;;;;;4829770;29;37363;-88
2024/01/12 02:06:51;;;;;;;27.53;4.30;;;4.60;99.90;;;;;;4841333;29;36907;-91
2024/01/12 02:09:17;;;;;;;15.20;3.30;;;4.50;99.90;;;;;;4840801;29;36271;-89
2024/01/12 02:11:43;;;;;;;19.83;4.20;;;4.50;99.90;;;;;;4822889;29;38490;-87
2024/01/12 02:14:10;;;;;;;17.87;6.37;;;4.50;99.90;;;;;;4824644;29;37621;-86
2024/01/12 02:16:36;;;;;;;16.47;3.60;;;4.50;99.90;;;;;;4845128;29;38520;-87
2024/01/12 02:19:03;;;;;;;21.43;3.97;;;4.50;99.90;;;;;;4845028;29;38585;-87
2024/01/12 02:21:30;;;;;;;20.70;3.70;;;4.50;99.90;;;;;;4836430;29;39074;-86
2024/01/12 02:23:56;;;;;;;20.00;4.47;;;4.50;99.90;;;;;;4838243;29;37416;-87
2024/01/12 02:26:22;;;;;;;16.63;3.33;;;4.50;99.90;;;;;;4818185;29;37176;-87
2024/01/12 02:28:49;;;;;;;25.00;3.57;;;4.50;99.90;;;;;;4822783;29;36574;-87
2024/01/12 02:31:16;;;;;;;16.70;3.50;;;4.50;99.90;;;;;;4840500;29;37620;-86
2024/01/12 02:33:42;;;;;;;16.67;3.90;;;4.50;99.90;;;;;;4821411;29;38255;-85
2024/01/12 02:36:08;;;;;;;13.67;3.23;;;4.50;99.90;;;;;;4822435;29;38519;-85
2024/01/12 02:38:35;;;;;;;20.77;4.93;;;4.50;99.90;;;;;;4824564;29;37536;-88
2024/01/12 02:41:01;;;;;;;16.97;3.53;;;4.50;99.90;;;;;;4832323;29;37642;-85
2024/01/12 02:43:27;;;;;;;17.90;3.40;;;4.50;99.90;;;;;;4841106;29;37621;-86
2024/01/12 02:45:53;;;;;;;20.90;3.27;;;4.50;99.90;;;;;;4847292;29;38683;-86
2024/01/12 02:48:20;;;;;;;12.80;2.70;;;4.50;99.90;;;;;;4819872;29;37679;-88
2024/01/12 02:50:46;;;;;;;18.40;3.57;;;4.50;99.90;;;;;;4836765;29;38120;-85
2024/01/12 02:53:12;;;;;;;18.03;3.00;;;4.50;99.90;;;;;;4840746;29;37140;-85
2024/01/12 02:55:38;;;;;;;15.83;3.33;;;4.50;99.90;;;;;;4849404;29;38410;-86
2024/01/12 02:58:04;;;;;;;16.33;2.80;;;4.50;99.90;;;;;;4841480;29;37027;-88
2024/01/12 03:00:30;;;;;;;16.83;2.83;;;4.50;99.90;;;;;;4841628;29;38071;-85
2024/01/12 03:02:56;;;;;;;15.90;3.53;;;4.50;99.90;;;;;;4837614;29;37789;-86
2024/01/12 03:05:23;;;;;;;16.43;3.00;;;4.50;99.90;;;;;;4823234;29;38311;-85
2024/01/12 03:07:49;;;;;;;16.20;3.33;;;4.60;99.90;;;;;;4843857;29;35928;-84
2024/01/12 03:10:17;;;;;;;13.40;2.97;;;4.60;99.90;;;;;;4821931;29;39330;-86
2024/01/12 03:12:43;;;;;;;16.73;3.17;;;4.60;99.90;;;;;;4809951;29;37566;-86
2024/01/12 03:15:09;;;;;;;9.07;2.53;;;4.60;99.90;;;;;;4827074;29;36548;-89
2024/01/12 03:17:38;;;;;;;12.87;2.87;;;4.60;99.90;;;;;;4845430;29;35971;-89
2024/01/12 03:20:05;;;;;;;10.17;2.23;;;4.60;99.90;;;;;;4848750;29;37946;-89
2024/01/12 03:22:31;;;;;;;10.83;3.03;;;4.60;99.90;;;;;;4840698;29;37623;-89
2024/01/12 03:24:57;;;;;;;14.70;2.90;;;4.60;99.90;;;;;;4839921;29;37353;-88
2024/01/12 03:27:25;;;;;;;17.03;3.43;;;4.60;99.90;;;;;;4820722;29;35948;-88
2024/01/12 03:29:51;;;;;;;7.90;2.43;;;4.60;99.90;;;;;;4849947;29;39480;-90
2024/01/12 03:32:17;;;;;;;10.57;2.50;;;4.60;99.90;;;;;;4824497;29;37638;-90
2024/01/12 03:34:43;;;;;;;15.67;3.13;;;4.60;99.90;;;;;;4829143;29;38492;-90
2024/01/12 03:37:10;;;;;;;17.43;3.40;;;4.60;99.90;;;;;;4842422;29;38197;-91
2024/01/12 03:39:36;;;;;;;12.27;3.17;;;4.50;99.90;;;;;;4849285;29;40538;-89
2024/01/12 03:42:03;;;;;;;14.73;3.47;;;4.60;99.90;;;;;;4843943;29;38704;-89
2024/01/12 03:44:31;;;;;;;13.83;3.10;;;4.60;99.90;;;;;;4831597;29;38047;-90
2024/01/12 03:46:57;;;;;;;14.33;3.07;;;4.60;99.90;;;;;;4821034;29;36529;-88
2024/01/12 03:49:23;;;;;;;16.30;2.87;;;4.60;99.90;;;;;;4843006;29;39551;-89
2024/01/12 03:51:53;;;;;;;11.33;3.43;;;4.60;99.90;;;;;;4830755;29;38239;-88
2024/01/12 03:54:22;;;;;;;11.80;3.03;;;4.60;99.90;;;;;;4828494;29;37203;-88
2024/01/12 03:56:48;;;;;;;10.33;2.83;;;4.60;99.90;;;;;;4844752;29;37957;-90
2024/01/12 03:59:14;;;;;;;14.33;4.07;;;4.60;99.90;;;;;;4833882;29;39510;-90
2024/01/12 04:01:44;;;;;;;8.73;2.60;;;4.60;99.90;;;;;;4832241;29;37858;-88
2024/01/12 04:04:11;;;;;;;12.60;3.50;;;4.50;99.90;;;;;;4844575;29;38476;-90
2024/01/12 04:06:37;;;;;;;7.70;2.33;;;4.60;99.90;;;;;;4830346;29;35800;-90
2024/01/12 04:09:04;;;;;;;9.83;3.23;;;4.60;99.90;;;;;;4843898;29;38400;-90
2024/01/12 04:11:30;;;;;;;10.23;2.80;;;4.50;99.90;;;;;;4822437;29;37622;-89
2024/01/12 04:14:20;;;;;;;11.50;3.37;;;4.50;99.90;;;;;;4844119;29;38245;-91
2024/01/12 04:16:46;;;;;;;9.87;3.63;;;4.60;99.90;;;;;;4833613;29;46804;-89
2024/01/12 04:19:13;;;;;;;11.63;2.70;;;4.50;99.90;;;;;;4822648;29;37664;-90
2024/01/12 04:21:40;;;;;;;8.53;3.40;;;4.50;99.90;;;;;;4845478;29;37902;-88
2024/01/12 04:24:06;;;;;;;13.53;4.40;;;4.50;99.90;;;;;;4850180;29;39786;-89
2024/01/12 04:26:32;;;;;;;7.57;3.13;;;4.50;99.90;;;;;;4822864;29;37832;-90
2024/01/12 04:28:58;;;;;;;10.63;3.30;;;4.50;99.90;;;;;;4835379;29;40476;-90
2024/01/12 04:31:25;;;;;;;18.67;4.30;;;4.40;99.90;;;;;;4845582;29;39133;-89
2024/01/12 04:33:51;;;;;;;9.03;3.07;;;4.40;99.90;;;;;;4844195;29;39267;-89
2024/01/12 04:36:21;;;;;;;7.30;2.87;;;4.40;99.90;;;;;;4837243;29;35767;-88
2024/01/12 04:38:47;;;;;;;9.73;2.77;;;4.40;99.90;;;;;;4843656;29;39132;-89
2024/01/12 04:41:13;;;;;;;13.10;3.07;;;4.40;99.90;;;;;;4828997;29;36860;-89
2024/01/12 04:43:40;;;;;;;6.67;2.60;;;4.30;99.90;;;;;;4851266;29;39048;-89
2024/01/12 04:46:06;;;;;;;11.47;3.37;;;4.30;99.90;;;;;;4819962;29;37533;-89
2024/01/12 04:48:32;;;;;;;11.37;3.07;;;4.30;99.90;;;;;;4828691;29;38258;-90
2024/01/12 04:51:13;;;;;;;8.33;2.90;;;4.20;99.90;;;;;;4832154;29;37578;-89
2024/01/12 04:53:40;;;;;;;10.57;3.37;;;4.20;99.90;;;;;;4821611;29;47391;-89
2024/01/12 04:56:06;;;;;;;13.23;3.10;;;4.20;99.90;;;;;;4844370;29;37200;-89
2024/01/12 04:58:32;;;;;;;10.83;3.47;;;4.20;99.90;;;;;;4844155;29;37977;-88
2024/01/12 05:00:58;;;;;;;12.27;3.10;;;4.10;99.90;;;;;;4841316;29;37143;-90
2024/01/12 05:03:24;;;;;;;10.47;3.33;;;4.20;99.90;;;;;;4842773;29;36858;-88
2024/01/12 05:05:51;;;;;;;6.20;2.73;;;4.20;99.90;;;;;;4828883;29;37521;-90
2024/01/12 05:08:17;;;;;;;8.67;3.07;;;4.10;99.90;;;;;;4827392;29;37771;-89
2024/01/12 05:10:43;;;;;;;8.73;2.87;;;4.10;99.90;;;;;;4829925;29;37676;-91
2024/01/12 05:13:12;;;;;;;9.57;3.27;;;4.10;99.90;;;;;;4842503;29;37068;-91
2024/01/12 05:15:38;;;;;;;11.40;3.33;;;4.10;99.90;;;;;;4828283;29;37352;-89
2024/01/12 05:18:16;;;;;;;9.23;3.07;;;4.10;99.90;;;;;;4825601;29;37326;-91
2024/01/12 05:20:42;;;;;;;8.53;3.07;;;4.10;99.90;;;;;;4819393;29;37750;-90
2024/01/12 05:23:09;;;;;;;12.73;3.60;;;4.20;99.90;;;;;;4825112;29;37441;-88
2024/01/12 05:25:35;;;;;;;8.67;2.90;;;4.20;99.90;;;;;;4846763;29;37071;-88
2024/01/12 05:28:01;;;;;;;11.17;3.23;;;4.10;99.90;;;;;;4845295;29;38186;-86
2024/01/12 05:30:27;;;;;;;8.83;3.47;;;4.10;99.90;;;;;;4831921;29;37456;-91
2024/01/12 05:32:54;;;;;;;14.00;3.33;;;4.10;99.90;;;;;;4842804;29;38523;-89
2024/01/12 05:35:22;;;;;;;17.87;3.87;;;4.10;99.90;;;;;;4844013;29;37107;-88
2024/01/12 05:37:48;;;;;;;12.17;4.43;;;4.10;99.90;;;;;;4841310;29;37596;-90
2024/01/12 05:44:48;;;;;;;17.00;4.20;;;4.10;99.90;;;;;;4725427;30;48389;-90
2024/01/12 05:47:37;;;;;;;12.70;4.03;;;4.10;99.90;;;;;;4738807;30;36417;-90
2024/01/12 05:50:37;;;;;;;8.07;2.97;;;4.00;99.90;;;;;;4725166;30;38352;-90
2024/01/12 05:53:05;;;;;;;13.13;3.70;;;4.00;99.90;;;;;;4716302;29;47364;-88
2024/01/12 05:55:32;;;;;;;15.57;4.40;;;4.10;99.90;;;;;;4764245;29;47941;-89
2024/01/12 05:58:05;;;;;;;14.73;4.73;;;4.00;99.90;;;;;;4799306;29;38114;-89
2024/01/12 06:00:31;;;;;;;13.43;4.57;;;4.00;99.90;;;;;;4832231;29;47176;-89
2024/01/12 06:02:57;;;;;;;10.17;4.20;;;4.00;99.90;;;;;;4823928;29;37643;-88
2024/01/12 06:05:26;;;;;;;15.47;4.67;;;4.10;99.90;;;;;;4808987;29;36957;-91
2024/01/12 06:07:53;;;;;;;13.80;4.17;;;4.10;99.90;;;;;;4826236;29;38742;-89
2024/01/12 06:10:19;;;;;;;14.50;4.43;;;4.10;99.90;;;;;;4827855;29;39176;-90
2024/01/12 06:12:46;;;;;;;14.37;4.17;;;4.10;99.90;;;;;;4832541;29;37912;-88
2024/01/12 06:15:12;;;;;;;11.90;4.10;;;4.10;99.90;;;;;;4814008;29;38963;-87
2024/01/12 06:17:39;;;;;;;9.60;3.97;;;4.10;99.90;;;;;;4819737;29;37664;-87
2024/01/12 06:20:07;;;;;;;13.63;4.03;;;4.10;99.90;;;;;;4838160;29;39068;-90
2024/01/12 06:22:33;;;;;;;14.83;3.80;;;4.10;99.90;;;;;;4848857;29;38056;-87
2024/01/12 06:24:59;;;;;;;9.83;4.07;;;4.10;99.90;;;;;;4846057;29;38330;-89
2024/01/12 06:27:25;;;;;;;6.93;4.10;;;4.00;99.90;;;;;;4830304;29;36042;-88
2024/01/12 06:29:52;;;;;;;11.30;3.90;;;4.00;99.90;;;;;;4844261;29;38099;-88
2024/01/12 06:32:37;;;;;;;13.30;4.87;;;4.00;99.90;;;;;;4820543;29;39128;-90
2024/01/12 06:35:04;;;;;;;11.23;3.90;;;4.00;99.90;;;;;;4821854;29;37915;-87
2024/01/12 06:37:41;;;;;;;11.47;4.07;;;4.00;99.90;;;;;;4840569;29;38189;-90
2024/01/12 06:40:12;;;;;;;10.97;4.63;;;4.00;99.90;;;;;;4839523;29;39451;-87
2024/01/12 06:42:41;;;;;;;9.03;3.90;;;4.00;99.90;;;;;;4824560;29;39476;-87
2024/01/12 06:45:09;;;;;;;11.67;3.70;;;4.00;99.90;;;;;;4802363;29;37097;-89
2024/01/12 06:47:35;;;;;;;11.80;4.20;;;4.00;99.90;;;;;;4818609;29;35296;-90
2024/01/12 06:50:02;;;;;;;13.43;4.57;;;4.00;99.90;;;;;;4828181;29;39597;-89
2024/01/12 06:52:30;;;;;;;10.57;3.80;;;3.90;99.90;;;;;;4825446;29;38028;-87
2024/01/12 06:54:56;;;;;;;7.13;3.43;;;3.90;99.90;;;;;;4826205;29;39061;-90
2024/01/12 06:57:22;;;;;;;8.13;3.73;;;3.90;99.90;;;;;;4826037;29;36374;-89
2024/01/12 06:59:48;;;;;;;10.50;4.67;;;3.90;99.90;;;;;;4826440;29;38675;-88
2024/01/12 07:02:15;;;;;;;8.83;3.87;;;3.90;99.90;;;;;;4809805;29;39041;-89
2024/01/12 07:08:20;;;;;;;16.00;4.20;;;3.90;99.90;;;;;;4748634;29;48923;-88
2024/01/12 07:10:46;;;;;;;9.20;4.17;;;3.90;99.90;;;;;;4822815;29;38158;-91
2024/01/12 07:13:13;;;;;;;11.73;4.53;;;3.80;99.90;;;;;;4828320;29;37195;-89
2024/01/12 07:15:45;;;;;;;12.83;4.00;;;3.80;99.90;;;;;;4816412;29;38220;-90
2024/01/12 07:18:12;;;;;;;7.30;3.53;;;3.80;99.90;;;;;;4825803;29;38065;-89
2024/01/12 07:20:43;;;;;;;8.10;4.00;;;3.80;99.90;;;;;;4812587;29;39456;-90
2024/01/12 07:23:13;;;;;;;8.80;3.63;;;3.80;99.90;;;;;;4812189;29;39545;-89
2024/01/12 07:25:42;;;;;;;8.53;3.80;;;3.70;99.90;;;;;;4818316;29;37172;-89
2024/01/12 07:28:18;;;;;;;;;;;;;;;;;;;;;
2024/01/12 07:30:45;;;;;;;11.90;5.30;;;3.70;99.90;;;;;;4831469;29;38691;-89
2024/01/12 07:33:11;;;;;;;10.37;3.83;;;3.70;99.90;;;;;;4826986;29;37932;-88
2024/01/12 07:35:37;;;;;;;14.83;6.30;;;3.70;99.90;;;;;;4828148;29;37529;-89
2024/01/12 07:38:07;;;;;;;8.87;4.40;;;3.70;99.90;;;;;;4819953;29;35627;-90
2024/01/12 07:41:03;;;;;;;13.33;4.83;;;3.70;99.90;;;;;;4806383;29;38267;-90
2024/01/12 07:43:32;;;;;;;13.50;5.67;;;3.70;99.90;;;;;;4811501;29;47084;-88
2024/01/12 07:46:16;;;;;;;;;;;;;;;;;;;;;
2024/01/12 07:48:43;;;;;;;16.70;6.53;;;3.70;99.90;;;;;;4805619;29;48033;-89
2024/01/12 07:51:15;;;;;;;13.83;5.93;;;3.80;99.90;;;;;;4813666;29;38649;-89
2024/01/12 07:53:42;;;;;;;12.55;6.15;;;3.70;99.90;;;;;;4807869;29;37523;-83
2024/01/12 07:56:12;;;;;;;20.00;8.80;;;3.70;99.90;;;;;;4821675;29;38733;-87
2024/01/12 07:58:38;;;;;;;21.00;9.20;;;3.80;99.90;;;;;;4819457;29;36330;-88
2024/01/12 08:01:07;;;;;;;15.17;7.67;;;3.80;99.90;;;;;;4813561;29;37790;-89
2024/01/12 08:03:36;;;;;;;15.13;7.70;;;3.80;99.90;;;;;;4831280;29;39063;-89
2024/01/12 08:06:03;;;;;;;16.87;8.07;;;3.80;99.90;;;;;;4828976;29;40010;-89
2024/01/12 08:08:31;;;;;;;19.10;8.57;;;3.80;99.90;;;;;;4828032;29;38824;-89
2024/01/12 08:11:33;;;;;;;16.07;8.20;;;3.80;99.90;;;;;;4828512;29;38766;-89
2024/01/12 08:14:31;;;;;;;26.40;11.63;;;3.80;99.90;;;;;;4786113;29;47973;-90
2024/01/12 08:17:11;;;;;;;25.97;13.37;;;3.80;99.90;;;;;;4754450;29;48849;-89
2024/01/12 08:19:38;;;;;;;31.03;13.17;;;3.80;99.90;;;;;;4786449;29;48843;-90
2024/01/12 08:22:32;;;;;;;38.53;15.27;;;3.90;99.90;;;;;;4802344;29;38465;-90
2024/01/12 08:25:14;;;;;;;37.87;15.77;;;3.90;99.90;;;;;;4811236;29;40002;-92
2024/01/12 08:27:40;;;;;;;34.83;17.57;;;3.90;99.90;;;;;;4791473;29;49196;-88
2024/01/12 08:30:12;;;;;;;28.53;15.10;;;3.90;99.90;;;;;;4796057;29;36234;-88
2024/01/12 08:32:38;;;;;;;30.42;14.82;;;3.90;99.90;;;;;;4808236;29;37939;-89
2024/01/12 08:35:05;;;;;;;35.30;15.70;;;3.90;99.90;;;;;;4806615;29;37796;-89
2024/01/12 08:37:31;;;;;;;33.90;16.43;;;3.90;99.90;;;;;;4817115;29;37699;-89
2024/01/12 08:39:58;;;;;;;38.67;16.00;;;3.90;99.90;;;;;;4817711;29;36992;-88
2024/01/12 08:42:27;;;;;;;30.27;15.70;;;3.90;99.90;;;;;;4828888;29;39642;-86
2024/01/12 08:44:56;;;;;;;37.13;18.07;;;3.90;99.90;;;;;;4814357;29;37545;-88
2024/01/12 08:47:29;;;;;;;29.57;13.23;;;3.90;99.90;;;;;;4820916;29;36816;-87
2024/01/12 08:49:58;;;;;;;26.27;12.82;;;3.90;99.90;;;;;;4807571;29;37829;-89
2024/01/12 08:52:25;;;;;;;29.07;12.80;;;3.90;99.90;;;;;;4804005;29;39487;-89
2024/01/12 08:54:54;;;;;;;26.40;12.97;;;4.00;99.90;;;;;;4822051;29;39147;-87
2024/01/12 08:57:23;;;;;;;21.80;10.50;;;4.00;99.90;;;;;;4802976;29;37296;-86
2024/01/12 09:00:03;;;;;;;22.77;8.40;;;4.00;99.90;;;;;;4812697;29;36797;-88
2024/01/12 09:02:51;;;;;;;19.63;7.13;;;4.10;99.90;;;;;;4821296;29;39978;-90
2024/01/12 09:05:26;;;;;;;19.67;7.73;;;4.20;99.90;;;;;;4805179;29;38067;-90
2024/01/12 09:11:22;;;;;;;21.63;8.07;;;4.30;99.90;;;;;;4769702;29;48497;-86
2024/01/12 09:13:51;;;;;;;14.80;8.03;;;4.40;99.90;;;;;;4819024;29;38011;-84
2024/01/12 09:16:20;;;;;;;13.87;6.90;;;4.40;99.90;;;;;;4819980;29;38119;-84
2024/01/12 09:19:00;;;;;;;17.70;7.53;;;4.40;99.90;;;;;;4811466;29;36823;-86
2024/01/12 09:21:26;;;;;;;14.67;7.27;;;4.40;99.90;;;;;;4816810;29;38129;-88
2024/01/12 09:23:56;;;;;;;17.70;6.87;;;4.40;99.90;;;;;;4797334;29;38451;-84
2024/01/12 09:26:26;;;;;;;22.33;7.90;;;4.50;99.90;;;;;;4819782;29;38126;-85
2024/01/12 09:28:59;;;;;;;13.63;6.30;;;4.60;99.90;;;;;;4798407;29;38811;-87
2024/01/12 09:31:35;;;;;;;21.67;7.20;;;4.60;99.90;;;;;;4813810;29;36182;-86
2024/01/12 09:34:03;;;;;;;15.33;6.00;;;4.70;99.90;;;;;;4806388;29;39417;-87
2024/01/12 09:36:30;;;;;;;21.03;7.50;;;4.80;99.90;;;;;;4813221;29;48579;-85
2024/01/12 09:38:56;;;;;;;15.57;5.73;;;4.80;99.90;;;;;;4815465;29;37002;-84
2024/01/12 09:41:37;;;;;;;15.87;5.90;;;4.90;99.90;;;;;;4823705;29;38144;-87
2024/01/12 09:44:08;;;;;;;18.63;6.07;;;5.00;99.90;;;;;;4787881;29;40820;-82
2024/01/12 09:46:47;;;;;;;16.27;6.20;;;5.00;99.90;;;;;;4813618;29;38438;-88
2024/01/12 09:49:18;;;;;;;18.87;5.70;;;5.00;99.90;;;;;;4810258;29;37021;-85
2024/01/12 09:51:44;;;;;;;16.67;5.60;;;5.10;99.90;;;;;;4827699;29;36724;-85
2024/01/12 09:54:28;;;;;;;11.10;5.70;;;5.10;99.90;;;;;;4816365;29;37705;-84
2024/01/12 09:57:01;;;;;;;12.57;5.50;;;5.20;99.90;;;;;;4822386;29;38854;-86
2024/01/12 09:59:28;;;;;;;15.43;5.40;;;5.30;99.90;;;;;;4811576;29;48063;-87
2024/01/12 10:02:25;;;;;;;;;;;;;;;;;;;;;
2024/01/12 10:05:13;;;;;;;17.23;5.93;;;5.50;99.90;;;;;;4811435;29;48595;-87
2024/01/12 10:07:48;;;;;;;17.20;4.90;;;5.50;99.90;;;;;;4792563;29;49439;-89
2024/01/12 10:10:17;;;;;;;16.23;4.73;;;5.60;99.90;;;;;;4792583;29;38619;-88
2024/01/12 10:12:50;;;;;;;15.17;5.60;;;5.60;99.90;;;;;;4802781;29;38759;-88
2024/01/12 10:15:29;;;;;;;17.10;5.27;;;5.70;99.90;;;;;;4810682;29;37802;-86
2024/01/12 10:18:01;;;;;;;19.80;6.53;;;5.70;99.90;;;;;;4801893;29;37610;-90
2024/01/12 10:21:08;;;;;;;17.30;5.27;;;5.80;99.90;;;;;;4800574;29;47889;-87
2024/01/12 10:23:35;;;;;;;18.13;5.40;;;5.80;99.90;;;;;;4821640;29;49416;-87
2024/01/12 10:26:05;;;;;;;18.97;5.53;;;5.80;99.90;;;;;;4802171;29;20159;-85
2024/01/12 10:28:40;;;;;;;19.60;5.47;;;5.90;99.90;;;;;;4811769;29;38290;-90
2024/01/12 10:31:07;;;;;;;20.90;5.20;;;5.80;99.90;;;;;;4811422;29;37660;-86
2024/01/12 10:33:37;;;;;;;12.40;4.80;;;5.90;99.90;;;;;;4808041;29;36052;-84
2024/01/12 10:36:29;;;;;;;20.47;6.17;;;5.90;99.90;;;;;;4810650;29;39504;-87
2024/01/12 10:38:59;;;;;;;20.20;4.63;;;5.90;99.90;;;;;;4810779;29;39821;-89
2024/01/12 10:41:31;;;;;;;24.73;4.63;;;5.90;99.90;;;;;;4802923;29;37748;-82
2024/01/12 10:44:03;;;;;;;16.00;5.13;;;5.90;96.80;;;;;;4804116;29;36929;-85
2024/01/12 10:46:35;;;;;;;16.55;4.47;;;6.00;96.50;;;;;;4825625;29;39047;-84
2024/01/12 10:49:12;;;;;;;14.18;4.45;;;6.10;97.20;;;;;;4820510;29;37713;-85
2024/01/12 10:51:43;;;;;;;12.63;4.37;;;6.20;96.10;;;;;;4825429;29;37095;-86
2024/01/12 10:54:20;;;;;;;13.93;4.90;;;6.20;95.20;;;;;;4824774;29;37612;-87
2024/01/12 10:56:58;;;;;;;13.13;4.10;;;6.30;96.70;;;;;;4816449;29;39530;-85
2024/01/12 10:59:33;;;;;;;19.77;5.03;;;6.40;93.60;;;;;;4796485;29;37999;-87
2024/01/12 11:02:00;;;;;;;17.30;4.27;;;6.40;85.10;;;;;;4808782;29;38219;-87
2024/01/12 11:05:24;;;;;;;;;;;;;;;;;;;;;
2024/01/12 11:08:07;;;;;;;11.10;3.70;;;6.50;78.80;;;;;;4800095;29;48973;-85
2024/01/12 11:13:58;;;;;;;15.27;4.37;;;6.50;68.00;;;;;;4801060;29;49289;-85
2024/01/12 11:16:24;;;;;;;16.00;4.10;;;6.50;68.00;;;;;;4772181;29;36886;-84
2024/01/12 11:18:51;;;;;;;17.30;5.17;;;6.50;70.10;;;;;;4817954;29;39619;-80
2024/01/12 11:22:04;;;;;;;18.13;4.67;;;6.60;70.20;;;;;;4811794;29;38516;-83
2024/01/12 11:25:19;;;;;;;19.40;4.90;;;6.60;59.90;;;;;;4775224;29;47928;-84
2024/01/12 11:28:16;;;;;;;18.47;4.67;;;6.50;57.10;;;;;;4751517;29;49178;-87
2024/01/12 11:30:42;;;;;;;13.37;3.70;;;6.50;58.10;;;;;;4816084;29;46971;-86
2024/01/12 11:34:08;;;;;;;22.07;5.00;;;6.50;56.80;;;;;;4800945;29;38453;-88
2024/01/12 11:36:34;;;;;;;15.83;4.13;;;6.50;55.60;;;;;;4777430;29;37068;-86
2024/01/12 11:39:01;;;;;;;15.60;3.97;;;6.40;57.20;;;;;;4798336;29;37244;-81
2024/01/12 11:48:38;;;;;;;10.67;3.53;;;6.40;63.20;;;;;;4676253;30;49096;-86
2024/01/12 11:54:44;;;;;;;16.53;3.03;;;6.30;68.80;;;;;;4743120;29;49382;-87
2024/01/12 11:58:16;;;;;;;17.13;4.10;;;6.40;64.70;;;;;;4809627;29;39968;-86
2024/01/12 12:03:48;;;;;;;14.50;4.30;;;6.50;65.80;;;;;;4783924;29;49063;-86
2024/01/12 12:06:22;;;;;;;15.43;3.33;;;6.40;70.20;;;;;;4793900;29;40282;-86
2024/01/12 12:09:34;;;;;;;14.73;3.30;;;6.40;71.70;;;;;;4822632;29;38935;-87
2024/01/12 12:12:15;;;;;;;16.30;4.20;;;6.30;71.90;;;;;;4785208;29;48794;-85
2024/01/12 12:18:01;;;;;;;12.13;3.40;;;6.40;72.80;;;;;;4756021;29;48471;-84
2024/01/12 12:20:36;;;;;;;14.50;3.37;;;6.30;75.70;;;;;;4816737;29;46923;-87
2024/01/12 12:23:16;;;;;;;;;;;;;;;;;;;;;
2024/01/12 12:36:59;;;;;;;14.03;2.90;;;6.50;64.40;;;;;;4711077;30;39057;-83
2024/01/12 12:39:55;;;;;;;15.33;3.10;;;6.70;65.40;;;;;;4671853;30;47119;-85
2024/01/12 12:45:37;;;;;;;10.23;2.53;;;6.60;59.10;;;;;;4678461;30;49497;-86
2024/01/12 12:48:04;;;;;;;14.80;3.33;;;6.70;56.40;;;;;;4781252;29;38362;-81
2024/01/12 12:50:30;;;;;;;16.47;2.93;;;6.70;53.00;;;;;;4823761;29;37227;-84
2024/01/12 12:52:56;;;;;;;8.17;2.53;;;6.80;48.60;;;;;;4828198;29;39390;-86
2024/01/12 12:55:23;;;;;;;18.93;4.17;;;6.70;49.00;;;;;;4823671;29;37237;-85
2024/01/12 12:57:49;;;;;;;8.00;2.17;;;6.70;47.60;;;;;;4810951;29;40143;-81
2024/01/12 13:00:15;;;;;;;11.70;2.20;;;6.80;50.30;;;;;;4820122;29;39176;-81
2024/01/12 13:02:41;;;;;;;9.23;2.03;;;6.80;50.50;;;;;;4811173;29;38668;-85
2024/01/12 13:05:10;;;;;;;16.87;3.60;;;6.90;50.60;;;;;;4827147;29;37036;-82
2024/01/12 13:07:51;;;;;;;11.03;2.10;;;6.90;46.60;;;;;;4802370;29;37837;-86
2024/01/12 13:10:17;;;;;;;18.57;3.13;;;6.90;45.90;;;;;;4810572;29;36694;-83
2024/01/12 13:12:43;;;;;;;10.67;2.33;;;6.80;47.30;;;;;;4808348;29;38603;-83
2024/01/12 13:15:10;;;;;;;12.87;1.80;;;6.80;50.70;;;;;;4819077;29;38485;-85
2024/01/12 13:17:37;;;;;;;9.40;1.70;;;6.70;54.50;;;;;;4826559;29;40329;-85
2024/01/12 13:20:18;;;;;;;9.33;1.90;;;6.70;62.40;;;;;;4829729;29;36771;-85
2024/01/12 13:22:55;;;;;;;10.13;2.03;;;6.70;68.20;;;;;;4773649;29;47434;-86
2024/01/12 13:25:30;;;;;;;7.30;1.20;;;6.70;75.30;;;;;;4794903;29;39105;-85
2024/01/12 13:27:57;;;;;;;10.77;1.70;;;6.70;80.80;;;;;;4817231;29;37450;-86
2024/01/12 13:31:28;;;;;;;;;;;;;;;;;;;;;
2024/01/12 13:37:10;;;;;;;7.93;1.30;;;6.60;98.80;;;;;;4766896;29;49005;-83
2024/01/12 13:42:25;;;;;;;5.33;1.13;;;6.80;99.90;;;;;;4753752;29;37400;-89
2024/01/12 13:44:51;;;;;;;8.43;0.97;;;6.90;99.90;;;;;;4808478;29;39723;-90
2024/01/12 13:47:17;;;;;;;3.43;0.87;;;6.90;99.90;;;;;;4807611;29;38663;-87
2024/01/12 13:49:43;;;;;;;6.00;1.43;;;6.80;99.90;;;;;;4829916;29;38997;-88
2024/01/12 13:52:11;;;;;;;9.97;1.23;;;6.80;99.90;;;;;;4830291;29;36149;-89
2024/01/12 13:54:38;;;;;;;4.80;0.70;;;6.80;99.90;;;;;;4827129;29;37847;-85
2024/01/12 13:57:04;;;;;;;9.13;0.83;;;6.80;99.90;;;;;;4825688;29;38374;-88
2024/01/12 13:59:34;;;;;;;6.23;1.10;;;6.70;99.90;;;;;;4824445;29;38341;-89
2024/01/12 14:02:00;;;;;;;7.23;0.73;;;6.70;99.90;;;;;;4829441;29;36368;-91
2024/01/12 14:04:26;;;;;;;3.93;0.87;;;6.60;99.90;;;;;;4818643;29;37499;-87
2024/01/12 14:06:53;;;;;;;5.03;1.00;;;6.50;99.90;;;;;;4820792;29;37576;-87